Time;durP1;ratioP1;P1;durP2;ratioP2;P2;SDS_P1;SDS_P2;PMS_P1;PMS_P2;Temp;Humidity;BMP_temperature;BMP_pressure;BME280_temperature;BME280_humidity;BME280_pressure;Samples;Min_cycle;Max_cycle;Signal;HPM_P1;HPM_P2
2023/04/30 00:00:26;;;;;;;11.63;3.25;;;;;;;;;;5034178;28;20052;-75
2023/04/30 00:02:52;;;;;;;9.75;3.15;;;;;;;;;;5052453;28;20128;-74
2023/04/30 00:05:18;;;;;;;9.00;3.10;;;;;;;;;;5036830;28;20144;-74
2023/04/30 00:07:44;;;;;;;12.23;3.45;;;;;;;;;;5052612;28;20493;-74
2023/04/30 00:10:11;;;;;;;9.10;2.97;;;;;;;;;;5034316;28;20140;-74
2023/04/30 00:12:37;;;;;;;13.32;3.17;;;;;;;;;;5051790;28;20060;-74
2023/04/30 00:15:03;;;;;;;13.23;2.92;;;;;;;;;;5034044;28;20498;-74
2023/04/30 00:17:29;;;;;;;11.77;3.20;;;;;;;;;;5052280;28;20049;-74
2023/04/30 00:19:56;;;;;;;8.50;3.25;;;;;;;;;;5048299;28;20044;-74
2023/04/30 00:22:21;;;;;;;14.02;3.65;;;;;;;;;;5032977;28;20128;-74
2023/04/30 00:24:48;;;;;;;10.43;3.22;;;;;;;;;;5032040;28;20127;-74
2023/04/30 00:27:14;;;;;;;13.68;3.15;;;;;;;;;;5050883;28;20127;-74
2023/04/30 00:29:41;;;;;;;9.63;3.22;;;;;;;;;;5034184;28;20102;-74
2023/04/30 00:32:07;;;;;;;13.70;3.90;;;;;;;;;;5033916;28;20126;-74
2023/04/30 00:34:33;;;;;;;11.32;3.33;;;;;;;;;;5034001;28;20056;-74
2023/04/30 00:36:59;;;;;;;11.70;3.35;;;;;;;;;;5032121;28;20132;-74
2023/04/30 00:39:25;;;;;;;10.80;3.47;;;;;;;;;;5050719;28;20569;-76
2023/04/30 00:41:51;;;;;;;10.25;3.67;;;;;;;;;;5051849;28;20041;-75
2023/04/30 00:44:17;;;;;;;14.02;3.67;;;;;;;;;;5052105;28;20051;-74
2023/04/30 00:46:43;;;;;;;10.27;3.50;;;;;;;;;;5046901;28;20554;-74
2023/04/30 00:49:09;;;;;;;8.15;3.30;;;;;;;;;;5017452;28;20128;-74
2023/04/30 00:51:35;;;;;;;10.23;3.58;;;;;;;;;;5050408;28;20045;-74
2023/04/30 00:54:02;;;;;;;14.10;3.92;;;;;;;;;;5044919;28;20086;-74
2023/04/30 00:56:31;;;;;;;12.60;4.15;;;;;;;;;;5054757;28;20045;-73
2023/04/30 00:58:58;;;;;;;11.80;3.97;;;;;;;;;;5055115;28;20120;-74
2023/04/30 01:01:30;;;;;;;16.30;4.45;;;;;;;;;;5054793;28;20033;-74
2023/04/30 01:03:57;;;;;;;10.00;3.53;;;;;;;;;;5055350;28;20460;-74
2023/04/30 01:06:24;;;;;;;12.88;3.83;;;;;;;;;;5036837;28;20073;-74
2023/04/30 01:08:50;;;;;;;11.45;3.80;;;;;;;;;;5055216;28;20033;-74
2023/04/30 01:11:25;;;;;;;7.68;3.65;;;;;;;;;;5055273;28;20037;-74
2023/04/30 01:14:10;;;;;;;9.27;3.50;;;;;;;;;;5021063;28;20048;-74
2023/04/30 01:16:40;;;;;;;13.00;3.83;;;;;;;;;;5037449;28;20049;-73
2023/04/30 01:19:14;;;;;;;13.40;3.40;;;;;;;;;;5037203;28;20051;-74
2023/04/30 01:21:42;;;;;;;11.68;3.20;;;;;;;;;;5037090;28;20049;-74
2023/04/30 01:24:20;;;;;;;10.05;3.60;;;;;;;;;;5055174;28;20049;-74
2023/04/30 01:27:00;;;;;;;13.75;3.42;;;;;;;;;;5034367;28;20190;-74
2023/04/30 01:29:26;;;;;;;11.68;3.40;;;;;;;;;;5037436;28;20079;-74
2023/04/30 01:31:52;;;;;;;10.73;3.35;;;;;;;;;;5054798;28;20080;-74
2023/04/30 01:34:18;;;;;;;8.65;3.38;;;;;;;;;;5035247;28;20088;-74
2023/04/30 01:37:07;;;;;;;11.60;3.67;;;;;;;;;;5036659;28;20498;-74
2023/04/30 01:39:34;;;;;;;11.45;3.60;;;;;;;;;;5026906;28;20463;-74
2023/04/30 01:42:06;;;;;;;11.63;3.33;;;;;;;;;;5054755;28;20045;-74
2023/04/30 01:44:41;;;;;;;9.98;3.15;;;;;;;;;;5054909;28;20063;-74
2023/04/30 01:47:22;;;;;;;8.30;3.00;;;;;;;;;;5054349;28;20371;-74
2023/04/30 01:49:56;;;;;;;12.00;3.58;;;;;;;;;;5036585;28;20102;-74
2023/04/30 01:52:39;;;;;;;11.93;3.40;;;;;;;;;;5054055;28;20049;-74
2023/04/30 01:55:13;;;;;;;9.85;3.17;;;;;;;;;;5051959;28;20113;-74
2023/04/30 01:57:42;;;;;;;12.15;3.67;;;;;;;;;;5054386;28;20419;-74
2023/04/30 02:00:10;;;;;;;11.02;3.50;;;;;;;;;;5054234;28;20041;-74
2023/04/30 02:02:36;;;;;;;10.95;3.42;;;;;;;;;;5054270;28;20136;-74
2023/04/30 02:05:02;;;;;;;11.30;4.20;;;;;;;;;;5035971;28;22068;-74
2023/04/30 02:07:37;;;;;;;13.75;4.32;;;;;;;;;;5053319;28;20343;-74
2023/04/30 02:10:03;;;;;;;10.85;4.00;;;;;;;;;;5034137;28;20417;-74
2023/04/30 02:12:29;;;;;;;11.35;3.88;;;;;;;;;;5053616;28;20468;-74
2023/04/30 02:14:55;;;;;;;12.23;4.18;;;;;;;;;;5053917;28;20500;-74
2023/04/30 02:17:21;;;;;;;10.43;3.45;;;;;;;;;;5053860;28;20041;-74
2023/04/30 02:19:47;;;;;;;8.70;3.38;;;;;;;;;;5053502;28;20549;-74
2023/04/30 02:22:13;;;;;;;11.20;3.38;;;;;;;;;;5053551;28;20132;-75
2023/04/30 02:24:39;;;;;;;14.35;3.35;;;;;;;;;;5053785;28;20059;-74
2023/04/30 02:27:05;;;;;;;10.63;3.10;;;;;;;;;;5053884;28;20105;-74
2023/04/30 02:29:31;;;;;;;9.73;3.00;;;;;;;;;;5035850;28;20371;-74
2023/04/30 02:32:01;;;;;;;11.27;3.08;;;;;;;;;;5035326;28;20127;-75
2023/04/30 02:34:27;;;;;;;14.63;3.00;;;;;;;;;;5035705;28;20045;-74
2023/04/30 02:36:53;;;;;;;12.80;3.22;;;;;;;;;;5052808;28;20049;-73
2023/04/30 02:39:19;;;;;;;12.18;3.20;;;;;;;;;;5052768;28;20037;-74
2023/04/30 02:41:45;;;;;;;12.27;3.50;;;;;;;;;;5053460;28;20523;-74
2023/04/30 02:44:11;;;;;;;11.35;2.90;;;;;;;;;;5053284;28;20091;-74
2023/04/30 02:46:37;;;;;;;12.02;3.47;;;;;;;;;;5054179;28;20041;-74
2023/04/30 02:49:03;;;;;;;11.35;3.10;;;;;;;;;;5054120;28;20170;-73
2023/04/30 02:51:30;;;;;;;10.35;3.17;;;;;;;;;;5035811;28;20044;-74
2023/04/30 02:53:56;;;;;;;8.63;3.35;;;;;;;;;;5052980;28;20087;-74
2023/04/30 02:56:22;;;;;;;12.50;3.47;;;;;;;;;;5019140;28;20052;-74
2023/04/30 02:58:48;;;;;;;13.43;3.13;;;;;;;;;;5053418;28;20124;-74
2023/04/30 03:01:14;;;;;;;14.90;3.50;;;;;;;;;;5053015;28;20053;-75
2023/04/30 03:03:40;;;;;;;12.23;3.20;;;;;;;;;;5035363;28;20055;-74
2023/04/30 03:06:06;;;;;;;10.80;3.78;;;;;;;;;;5035116;28;20413;-74
2023/04/30 03:08:32;;;;;;;9.10;3.20;;;;;;;;;;5052878;28;20389;-75
2023/04/30 03:10:58;;;;;;;12.63;3.83;;;;;;;;;;5052851;28;20049;-75
2023/04/30 03:13:25;;;;;;;12.07;3.30;;;;;;;;;;5052982;28;20094;-74
2023/04/30 03:15:57;;;;;;;11.13;3.35;;;;;;;;;;5052597;28;20423;-74
2023/04/30 03:18:23;;;;;;;13.18;3.40;;;;;;;;;;5052833;28;20151;-74
2023/04/30 03:20:49;;;;;;;8.80;3.13;;;;;;;;;;5050459;28;20465;-75
2023/04/30 03:23:15;;;;;;;12.43;3.45;;;;;;;;;;5052798;28;20041;-74
2023/04/30 03:25:41;;;;;;;12.43;3.47;;;;;;;;;;5050840;28;20129;-74
2023/04/30 03:28:07;;;;;;;9.13;3.30;;;;;;;;;;5052830;28;20040;-74
2023/04/30 03:30:33;;;;;;;12.77;3.70;;;;;;;;;;5034666;28;20041;-74
2023/04/30 03:32:59;;;;;;;10.43;3.35;;;;;;;;;;5052725;28;20061;-74
2023/04/30 03:35:25;;;;;;;12.90;3.60;;;;;;;;;;5034760;28;20087;-74
2023/04/30 03:37:51;;;;;;;9.05;3.58;;;;;;;;;;5052673;28;20045;-75
2023/04/30 03:40:17;;;;;;;9.30;3.45;;;;;;;;;;5050702;28;20056;-74
2023/04/30 03:42:43;;;;;;;11.32;3.20;;;;;;;;;;5052297;28;20059;-74
2023/04/30 03:45:09;;;;;;;12.75;3.80;;;;;;;;;;5052494;28;20052;-74
2023/04/30 03:47:36;;;;;;;12.82;3.83;;;;;;;;;;5034467;28;20045;-74
2023/04/30 03:50:02;;;;;;;12.20;3.40;;;;;;;;;;5052218;28;20047;-74
2023/04/30 03:52:30;;;;;;;12.30;3.47;;;;;;;;;;5051703;28;20043;-75
2023/04/30 03:54:56;;;;;;;10.75;3.50;;;;;;;;;;5048770;28;20045;-75
2023/04/30 03:57:22;;;;;;;11.02;3.20;;;;;;;;;;5017663;28;20041;-75
2023/04/30 03:59:49;;;;;;;9.27;3.25;;;;;;;;;;5051994;28;20059;-75
2023/04/30 04:02:15;;;;;;;10.20;3.60;;;;;;;;;;5052014;28;20067;-75
2023/04/30 04:04:42;;;;;;;11.82;3.45;;;;;;;;;;5032811;28;20128;-75
2023/04/30 04:07:10;;;;;;;10.15;3.65;;;;;;;;;;5033449;28;20091;-75
2023/04/30 04:09:36;;;;;;;9.77;3.60;;;;;;;;;;5051974;28;20059;-75
2023/04/30 04:12:02;;;;;;;10.52;3.58;;;;;;;;;;5033972;28;20400;-75
2023/04/30 04:14:28;;;;;;;9.82;3.72;;;;;;;;;;5052263;28;20041;-75
2023/04/30 04:16:54;;;;;;;13.05;3.80;;;;;;;;;;5051651;28;20106;-75
2023/04/30 04:19:21;;;;;;;12.70;3.90;;;;;;;;;;5051974;28;20472;-74
2023/04/30 04:21:47;;;;;;;11.82;4.07;;;;;;;;;;5051722;28;20049;-75
2023/04/30 04:24:13;;;;;;;10.25;3.78;;;;;;;;;;5051378;28;20520;-75
2023/04/30 04:26:39;;;;;;;13.63;4.80;;;;;;;;;;5052105;28;20124;-75
2023/04/30 04:29:07;;;;;;;13.27;4.18;;;;;;;;;;5054503;28;20128;-75
2023/04/30 04:31:33;;;;;;;11.60;4.28;;;;;;;;;;5037578;28;20393;-75
2023/04/30 04:34:00;;;;;;;12.18;3.80;;;;;;;;;;5035368;28;20057;-75
2023/04/30 04:36:27;;;;;;;13.02;3.88;;;;;;;;;;5054310;28;20051;-74
2023/04/30 04:38:53;;;;;;;10.30;3.85;;;;;;;;;;5051837;28;20041;-75
2023/04/30 04:41:19;;;;;;;11.05;4.13;;;;;;;;;;5054205;28;20044;-74
2023/04/30 04:43:45;;;;;;;11.02;4.32;;;;;;;;;;5055277;28;20393;-74
2023/04/30 04:46:15;;;;;;;10.00;4.55;;;;;;;;;;5047854;28;20052;-74
2023/04/30 04:48:41;;;;;;;11.65;4.55;;;;;;;;;;5055865;28;20213;-74
2023/04/30 04:51:07;;;;;;;13.23;4.25;;;;;;;;;;5054171;28;20432;-74
2023/04/30 04:53:33;;;;;;;11.95;4.43;;;;;;;;;;5054139;28;20083;-75
2023/04/30 04:55:59;;;;;;;13.65;4.20;;;;;;;;;;5055278;28;20103;-74
2023/04/30 04:58:25;;;;;;;12.15;4.07;;;;;;;;;;5054084;28;20124;-74
2023/04/30 05:00:52;;;;;;;9.90;4.10;;;;;;;;;;5054991;28;20389;-74
2023/04/30 05:03:19;;;;;;;11.75;3.90;;;;;;;;;;5054918;28;20413;-74
2023/04/30 05:05:45;;;;;;;18.80;4.53;;;;;;;;;;5055229;28;20098;-74
2023/04/30 05:08:12;;;;;;;11.23;3.92;;;;;;;;;;5054377;28;20084;-75
2023/04/30 05:10:38;;;;;;;15.35;4.28;;;;;;;;;;5054906;28;20037;-74
2023/04/30 05:13:04;;;;;;;13.27;4.10;;;;;;;;;;5046508;28;20483;-75
2023/04/30 05:15:30;;;;;;;9.20;3.70;;;;;;;;;;5055172;28;20501;-74
2023/04/30 05:17:56;;;;;;;12.70;4.43;;;;;;;;;;5055585;28;20077;-74
2023/04/30 05:20:22;;;;;;;18.35;4.28;;;;;;;;;;5048372;28;20053;-74
2023/04/30 05:22:48;;;;;;;13.18;4.05;;;;;;;;;;5054410;28;20044;-75
2023/04/30 05:25:14;;;;;;;15.68;4.50;;;;;;;;;;5059344;28;20045;-74
2023/04/30 05:27:40;;;;;;;13.63;3.78;;;;;;;;;;5055889;28;20091;-74
2023/04/30 05:30:08;;;;;;;13.48;3.92;;;;;;;;;;5055658;28;20071;-74
2023/04/30 05:32:34;;;;;;;14.40;5.10;;;;;;;;;;5055215;28;20053;-74
2023/04/30 05:35:00;;;;;;;14.02;8.73;;;;;;;;;;5055249;28;20045;-74
2023/04/30 05:37:26;;;;;;;16.35;9.73;;;;;;;;;;5037324;28;20068;-74
2023/04/30 05:39:55;;;;;;;19.73;10.63;;;;;;;;;;5054445;28;20041;-74
2023/04/30 05:42:21;;;;;;;13.82;7.70;;;;;;;;;;5053588;28;20057;-74
2023/04/30 05:44:48;;;;;;;15.93;6.60;;;;;;;;;;5036852;28;20052;-74
2023/04/30 05:47:14;;;;;;;15.90;5.93;;;;;;;;;;5036742;28;20102;-74
2023/04/30 05:49:41;;;;;;;12.10;5.15;;;;;;;;;;5044702;28;20038;-74
2023/04/30 05:52:07;;;;;;;10.85;4.88;;;;;;;;;;5034484;28;20427;-74
2023/04/30 05:54:33;;;;;;;15.63;4.63;;;;;;;;;;5022551;28;20057;-74
2023/04/30 05:56:59;;;;;;;12.13;4.07;;;;;;;;;;5015901;28;20045;-74
2023/04/30 05:59:25;;;;;;;11.48;4.55;;;;;;;;;;5034328;28;20052;-75
2023/04/30 06:01:51;;;;;;;13.23;4.55;;;;;;;;;;5016165;28;20505;-72
2023/04/30 06:04:18;;;;;;;11.07;3.92;;;;;;;;;;5016599;28;20383;-75
2023/04/30 06:06:44;;;;;;;10.32;3.72;;;;;;;;;;5016217;28;20125;-75
2023/04/30 06:09:10;;;;;;;12.90;4.35;;;;;;;;;;5033980;28;20041;-75
2023/04/30 06:11:36;;;;;;;10.82;3.53;;;;;;;;;;5051322;28;20045;-75
2023/04/30 06:14:03;;;;;;;13.65;4.07;;;;;;;;;;5032523;28;20042;-75
2023/04/30 06:16:29;;;;;;;13.93;5.22;;;;;;;;;;5016817;28;20379;-73
2023/04/30 06:18:55;;;;;;;9.82;3.88;;;;;;;;;;5034478;28;20042;-73
2023/04/30 06:21:24;;;;;;;12.88;3.97;;;;;;;;;;5033954;28;20041;-73
2023/04/30 06:23:51;;;;;;;18.52;4.40;;;;;;;;;;5015390;28;20060;-73
2023/04/30 06:26:18;;;;;;;10.30;4.50;;;;;;;;;;5032920;28;20398;-74
2023/04/30 06:28:44;;;;;;;16.67;5.03;;;;;;;;;;5033785;28;20106;-76
2023/04/30 06:31:10;;;;;;;11.48;4.60;;;;;;;;;;5016323;28;20045;-74
2023/04/30 06:33:36;;;;;;;12.98;5.43;;;;;;;;;;5048014;28;20398;-73
2023/04/30 06:36:02;;;;;;;11.98;5.65;;;;;;;;;;5053885;28;20481;-74
2023/04/30 06:38:28;;;;;;;16.90;5.75;;;;;;;;;;5053959;28;20324;-74
2023/04/30 06:40:54;;;;;;;12.40;4.68;;;;;;;;;;5051350;28;20056;-74
2023/04/30 06:43:20;;;;;;;12.00;4.65;;;;;;;;;;5047365;28;20051;-74
2023/04/30 06:45:46;;;;;;;12.90;4.68;;;;;;;;;;5053818;28;20128;-74
2023/04/30 06:48:12;;;;;;;12.13;4.03;;;;;;;;;;5046039;28;20045;-74
2023/04/30 06:50:43;;;;;;;12.88;3.95;;;;;;;;;;5050574;28;20392;-74
2023/04/30 06:53:10;;;;;;;12.68;3.80;;;;;;;;;;5044912;28;20045;-74
2023/04/30 06:55:37;;;;;;;10.43;4.03;;;;;;;;;;5032142;28;20050;-74
2023/04/30 06:58:04;;;;;;;11.68;4.20;;;;;;;;;;5024569;28;20128;-74
2023/04/30 07:00:31;;;;;;;11.23;4.18;;;;;;;;;;5031920;28;20041;-74
2023/04/30 07:03:01;;;;;;;9.80;3.60;;;;;;;;;;5051662;28;20067;-74
2023/04/30 07:05:27;;;;;;;13.35;3.63;;;;;;;;;;5047568;28;20516;-74
2023/04/30 07:07:53;;;;;;;13.07;3.30;;;;;;;;;;5052049;28;20056;-74
2023/04/30 07:10:19;;;;;;;15.90;3.78;;;;;;;;;;5046571;28;20053;-74
2023/04/30 07:12:45;;;;;;;11.23;3.33;;;;;;;;;;5053085;28;20045;-74
2023/04/30 07:15:11;;;;;;;12.32;3.90;;;;;;;;;;5043056;28;20083;-74
2023/04/30 07:17:37;;;;;;;10.80;3.40;;;;;;;;;;5051296;28;20052;-74
2023/04/30 07:20:04;;;;;;;9.68;3.28;;;;;;;;;;5053208;28;20131;-74
2023/04/30 07:22:30;;;;;;;10.93;3.00;;;;;;;;;;5046807;28;20081;-74
2023/04/30 07:24:57;;;;;;;11.15;2.88;;;;;;;;;;5050836;28;20171;-74
2023/04/30 07:27:23;;;;;;;11.65;3.15;;;;;;;;;;5046635;28;20088;-75
2023/04/30 07:29:49;;;;;;;12.88;3.40;;;;;;;;;;5051816;28;20515;-74
2023/04/30 07:32:15;;;;;;;10.57;3.30;;;;;;;;;;5028715;28;20098;-74
2023/04/30 07:34:41;;;;;;;9.68;3.00;;;;;;;;;;5034953;28;20060;-74
2023/04/30 07:37:08;;;;;;;11.70;2.80;;;;;;;;;;5052888;28;20086;-74
2023/04/30 07:39:35;;;;;;;10.20;2.83;;;;;;;;;;5052734;28;20048;-74
2023/04/30 07:42:02;;;;;;;11.82;3.40;;;;;;;;;;5034628;28;20048;-74
2023/04/30 07:44:28;;;;;;;9.52;3.13;;;;;;;;;;5052777;28;20044;-74
2023/04/30 07:46:57;;;;;;;12.57;3.33;;;;;;;;;;5035056;28;20041;-75
2023/04/30 07:49:23;;;;;;;11.77;2.80;;;;;;;;;;5028764;28;20087;-74
2023/04/30 07:51:50;;;;;;;8.90;2.83;;;;;;;;;;5051340;28;20486;-74
2023/04/30 07:54:16;;;;;;;11.63;3.13;;;;;;;;;;5033575;28;20087;-74
2023/04/30 07:56:42;;;;;;;12.93;3.42;;;;;;;;;;5050903;28;20045;-74
2023/04/30 07:59:08;;;;;;;12.20;3.17;;;;;;;;;;5048695;28;20053;-74
2023/04/30 08:01:34;;;;;;;10.27;3.15;;;;;;;;;;5043754;28;20041;-74
2023/04/30 08:04:00;;;;;;;11.80;3.20;;;;;;;;;;5034964;28;20068;-74
2023/04/30 08:06:29;;;;;;;11.20;3.42;;;;;;;;;;5014482;28;20045;-74
2023/04/30 08:08:55;;;;;;;12.82;3.55;;;;;;;;;;5015013;28;20041;-74
2023/04/30 08:11:21;;;;;;;13.20;3.30;;;;;;;;;;5031425;28;20065;-73
2023/04/30 08:13:47;;;;;;;11.43;3.30;;;;;;;;;;5016319;28;20475;-73
2023/04/30 08:16:13;;;;;;;10.00;2.92;;;;;;;;;;5034719;28;20052;-74
2023/04/30 08:18:42;;;;;;;10.45;3.10;;;;;;;;;;5034881;28;20445;-73
2023/04/30 08:21:09;;;;;;;12.45;3.10;;;;;;;;;;5052198;28;20041;-74
2023/04/30 08:23:35;;;;;;;12.32;3.17;;;;;;;;;;5045401;28;20124;-74
2023/04/30 08:26:01;;;;;;;10.30;3.33;;;;;;;;;;5052009;28;20041;-74
2023/04/30 08:28:27;;;;;;;9.68;3.08;;;;;;;;;;5052968;28;20110;-74
2023/04/30 08:30:53;;;;;;;9.18;2.90;;;;;;;;;;5052467;28;20049;-74
2023/04/30 08:33:19;;;;;;;11.55;3.17;;;;;;;;;;5052430;28;20140;-74
2023/04/30 08:35:45;;;;;;;9.85;3.10;;;;;;;;;;5052515;28;20070;-74
2023/04/30 08:38:11;;;;;;;9.80;3.33;;;;;;;;;;5052589;28;20489;-75
2023/04/30 08:40:37;;;;;;;8.27;2.80;;;;;;;;;;5051357;28;20091;-74
2023/04/30 08:43:04;;;;;;;10.45;2.97;;;;;;;;;;5016706;28;20087;-73
2023/04/30 08:45:35;;;;;;;9.27;2.67;;;;;;;;;;5049702;28;20475;-74
2023/04/30 08:48:02;;;;;;;9.13;2.75;;;;;;;;;;5051109;28;20045;-74
2023/04/30 08:50:28;;;;;;;9.63;3.08;;;;;;;;;;5051965;28;20493;-74
2023/04/30 08:52:54;;;;;;;13.25;3.00;;;;;;;;;;5051645;28;20049;-74
2023/04/30 08:55:20;;;;;;;11.85;3.08;;;;;;;;;;5046286;28;20041;-74
2023/04/30 08:57:46;;;;;;;9.98;3.15;;;;;;;;;;5050841;28;20081;-74
2023/04/30 09:00:13;;;;;;;10.13;3.20;;;;;;;;;;5034323;28;20142;-74
2023/04/30 09:02:40;;;;;;;5.93;2.45;;;;;;;;;;5033976;28;20573;-74
2023/04/30 09:05:10;;;;;;;9.63;3.13;;;;;;;;;;5052206;28;20052;-74
2023/04/30 09:07:37;;;;;;;12.55;3.25;;;;;;;;;;5052173;28;20426;-74
2023/04/30 09:10:04;;;;;;;14.00;3.00;;;;;;;;;;5051909;28;20144;-74
2023/04/30 09:12:30;;;;;;;9.02;3.10;;;;;;;;;;5033939;28;20060;-74
2023/04/30 09:15:01;;;;;;;9.07;2.88;;;;;;;;;;5054081;28;20440;-74
2023/04/30 09:17:27;;;;;;;11.48;3.40;;;;;;;;;;5055101;28;20049;-74
2023/04/30 09:19:53;;;;;;;9.32;3.33;;;;;;;;;;5055118;28;20053;-74
2023/04/30 09:22:20;;;;;;;11.25;3.00;;;;;;;;;;5054601;28;20084;-73
2023/04/30 09:24:48;;;;;;;7.43;2.58;;;;;;;;;;5054205;28;20048;-74
2023/04/30 09:27:17;;;;;;;8.50;3.10;;;;;;;;;;5055344;28;20114;-70
2023/04/30 09:29:45;;;;;;;8.52;2.95;;;;;;;;;;5055143;28;20517;-70
2023/04/30 09:32:11;;;;;;;11.20;3.10;;;;;;;;;;5054577;28;20049;-74
2023/04/30 09:34:37;;;;;;;8.98;2.75;;;;;;;;;;5037344;28;20056;-71
2023/04/30 09:37:03;;;;;;;8.68;3.40;;;;;;;;;;5037500;28;20131;-71
2023/04/30 09:39:29;;;;;;;6.97;2.53;;;;;;;;;;5054778;28;20048;-71
2023/04/30 09:42:09;;;;;;;12.13;2.83;;;;;;;;;;5055000;28;20044;-70
2023/04/30 09:44:39;;;;;;;9.43;2.80;;;;;;;;;;5037364;28;20374;-70
2023/04/30 09:47:11;;;;;;;9.95;2.55;;;;;;;;;;5037335;28;20045;-74
2023/04/30 09:49:37;;;;;;;7.78;2.88;;;;;;;;;;5036796;28;20076;-72
2023/04/30 09:52:03;;;;;;;8.20;2.80;;;;;;;;;;5054618;28;20095;-74
2023/04/30 09:54:30;;;;;;;6.32;2.70;;;;;;;;;;5023743;28;20045;-76
2023/04/30 09:56:58;;;;;;;9.82;2.72;;;;;;;;;;5021252;28;20114;-76
2023/04/30 09:59:29;;;;;;;7.43;2.58;;;;;;;;;;5024602;28;20060;-75
2023/04/30 10:01:58;;;;;;;9.95;2.75;;;;;;;;;;5027898;28;20053;-74
2023/04/30 10:04:25;;;;;;;8.32;2.63;;;;;;;;;;5029990;28;20041;-76
2023/04/30 10:06:53;;;;;;;6.38;2.33;;;;;;;;;;5054481;28;20123;-75
2023/04/30 10:09:19;;;;;;;7.63;2.60;;;;;;;;;;5035671;28;20037;-75
2023/04/30 10:11:49;;;;;;;8.80;2.63;;;;;;;;;;5051829;28;20041;-75
2023/04/30 10:14:17;;;;;;;9.77;2.83;;;;;;;;;;5048597;28;20040;-75
2023/04/30 10:16:47;;;;;;;8.77;2.65;;;;;;;;;;5049960;28;20130;-75
2023/04/30 10:19:33;;;;;;;7.25;2.42;;;;;;;;;;5043401;28;20175;-76
2023/04/30 10:22:00;;;;;;;9.00;2.67;;;;;;;;;;5036126;28;20500;-75
2023/04/30 10:24:27;;;;;;;9.70;2.42;;;;;;;;;;5036291;28;20045;-75
2023/04/30 10:26:53;;;;;;;7.57;2.40;;;;;;;;;;5052806;28;20090;-75
2023/04/30 10:29:19;;;;;;;7.05;2.45;;;;;;;;;;5029866;28;20049;-73
2023/04/30 10:31:47;;;;;;;6.88;2.33;;;;;;;;;;5051394;28;20040;-73
2023/04/30 10:34:31;;;;;;;6.65;2.17;;;;;;;;;;5048456;28;20358;-75
2023/04/30 10:36:59;;;;;;;8.30;2.10;;;;;;;;;;5054118;28;20465;-76
2023/04/30 10:39:27;;;;;;;7.07;2.50;;;;;;;;;;5047904;28;20115;-76
2023/04/30 10:42:03;;;;;;;8.38;2.30;;;;;;;;;;5053248;28;20053;-76
2023/04/30 10:44:32;;;;;;;8.18;2.47;;;;;;;;;;5056316;28;20120;-75
2023/04/30 10:46:59;;;;;;;8.80;2.70;;;;;;;;;;5051264;28;20128;-75
2023/04/30 10:49:28;;;;;;;6.70;2.38;;;;;;;;;;5046737;28;20496;-76
2023/04/30 10:51:55;;;;;;;7.50;2.30;;;;;;;;;;5051340;28;20044;-75
2023/04/30 10:54:31;;;;;;;6.28;2.40;;;;;;;;;;5043681;28;20086;-75
2023/04/30 10:57:18;;;;;;;7.03;2.13;;;;;;;;;;5032184;28;20041;-75
2023/04/30 10:59:50;;;;;;;7.55;2.70;;;;;;;;;;5038444;28;20385;-75
2023/04/30 11:02:16;;;;;;;6.53;2.45;;;;;;;;;;5044768;28;20037;-75
2023/04/30 11:05:01;;;;;;;6.35;2.72;;;;;;;;;;5051606;28;20409;-76
2023/04/30 11:07:27;;;;;;;7.47;2.60;;;;;;;;;;5051313;28;20069;-75
2023/04/30 11:09:56;;;;;;;6.95;2.70;;;;;;;;;;5033082;28;20053;-74
2023/04/30 11:12:27;;;;;;;7.78;2.72;;;;;;;;;;5051217;28;20160;-75
2023/04/30 11:15:06;;;;;;;8.02;2.80;;;;;;;;;;5050173;28;20040;-75
2023/04/30 11:17:33;;;;;;;9.43;2.65;;;;;;;;;;5046796;28;20064;-76
2023/04/30 11:20:00;;;;;;;8.38;2.88;;;;;;;;;;5052493;28;20091;-76
2023/04/30 11:22:28;;;;;;;10.05;2.92;;;;;;;;;;5047165;28;20041;-74
2023/04/30 11:25:05;;;;;;;8.15;2.90;;;;;;;;;;5053236;28;20497;-74
2023/04/30 11:27:33;;;;;;;7.60;2.83;;;;;;;;;;5053371;28;20045;-75
2023/04/30 11:29:59;;;;;;;6.28;2.50;;;;;;;;;;5043485;28;20052;-75
2023/04/30 11:32:31;;;;;;;7.55;2.40;;;;;;;;;;5052676;28;20056;-74
2023/04/30 11:34:58;;;;;;;4.78;2.30;;;;;;;;;;5051599;28;20077;-75
2023/04/30 11:37:33;;;;;;;6.63;2.70;;;;;;;;;;5052428;28;20045;-75
2023/04/30 11:40:01;;;;;;;5.28;2.50;;;;;;;;;;5052693;28;20041;-75
2023/04/30 11:42:29;;;;;;;4.97;2.20;;;;;;;;;;5034833;28;20044;-75
2023/04/30 11:45:02;;;;;;;6.75;2.40;;;;;;;;;;5052924;28;20049;-75
2023/04/30 11:47:37;;;;;;;5.70;2.30;;;;;;;;;;5052734;28;20044;-75
2023/04/30 11:50:03;;;;;;;5.57;2.20;;;;;;;;;;5052658;28;20393;-75
2023/04/30 11:52:29;;;;;;;3.85;1.77;;;;;;;;;;5034434;28;20052;-75
2023/04/30 11:54:56;;;;;;;4.50;2.20;;;;;;;;;;5034651;28;20463;-75
2023/04/30 11:57:22;;;;;;;5.30;2.03;;;;;;;;;;5052571;28;20099;-76
2023/04/30 11:59:48;;;;;;;5.18;2.20;;;;;;;;;;5018414;28;20044;-75
2023/04/30 12:02:16;;;;;;;5.00;2.40;;;;;;;;;;5050966;28;20117;-75
2023/04/30 12:04:47;;;;;;;7.03;2.50;;;;;;;;;;5034338;28;20055;-75
2023/04/30 12:07:13;;;;;;;4.13;2.10;;;;;;;;;;5034903;28;20088;-75
2023/04/30 12:09:55;;;;;;;5.57;2.38;;;;;;;;;;5052337;28;20041;-75
2023/04/30 12:12:28;;;;;;;7.13;2.40;;;;;;;;;;5052317;28;20045;-76
2023/04/30 12:14:54;;;;;;;5.28;2.45;;;;;;;;;;5050810;28;20442;-75
2023/04/30 12:17:31;;;;;;;5.35;2.20;;;;;;;;;;5052480;28;20126;-75
2023/04/30 12:19:57;;;;;;;4.15;2.05;;;;;;;;;;5002309;28;20041;-75
2023/04/30 12:22:23;;;;;;;6.47;2.60;;;;;;;;;;5034230;28;20037;-75
2023/04/30 12:24:49;;;;;;;5.18;2.30;;;;;;;;;;5033473;28;20149;-75
2023/04/30 12:27:16;;;;;;;6.25;2.30;;;;;;;;;;5051393;28;20501;-73
2023/04/30 12:29:46;;;;;;;4.78;2.28;;;;;;;;;;5051220;28;20434;-74
2023/04/30 12:32:17;;;;;;;5.40;2.35;;;;;;;;;;5033280;28;20088;-73
2023/04/30 12:34:43;;;;;;;5.05;2.60;;;;;;;;;;5052113;28;20160;-73
2023/04/30 12:37:09;;;;;;;6.90;2.70;;;;;;;;;;5051480;28;20041;-73
2023/04/30 12:39:35;;;;;;;4.88;2.47;;;;;;;;;;5051253;28;20040;-73
2023/04/30 12:42:03;;;;;;;5.03;2.20;;;;;;;;;;5051905;28;20136;-74
2023/04/30 12:44:29;;;;;;;5.32;2.30;;;;;;;;;;5032764;28;20550;-74
2023/04/30 12:46:59;;;;;;;4.78;2.00;;;;;;;;;;5037482;28;20065;-75
2023/04/30 12:49:29;;;;;;;5.53;2.10;;;;;;;;;;5033504;28;20405;-75
2023/04/30 12:52:03;;;;;;;6.40;2.28;;;;;;;;;;5043134;28;20044;-76
2023/04/30 12:54:30;;;;;;;5.63;2.15;;;;;;;;;;5002865;28;20045;-76
2023/04/30 12:57:00;;;;;;;5.43;2.25;;;;;;;;;;5017020;28;20121;-75
2023/04/30 12:59:30;;;;;;;7.10;2.83;;;;;;;;;;5001338;28;20060;-75
2023/04/30 13:02:05;;;;;;;3.78;2.00;;;;;;;;;;5017403;28;20132;-75
2023/04/30 13:04:31;;;;;;;5.32;2.10;;;;;;;;;;5034072;28;20045;-75
2023/04/30 13:06:57;;;;;;;8.85;3.55;;;;;;;;;;5001497;28;20580;-74
2023/04/30 13:09:23;;;;;;;6.30;2.83;;;;;;;;;;5037401;28;20043;-75
2023/04/30 13:11:49;;;;;;;6.30;2.60;;;;;;;;;;5053726;28;20343;-75
2023/04/30 13:14:16;;;;;;;6.47;2.78;;;;;;;;;;5055391;28;20047;-76
2023/04/30 13:16:43;;;;;;;4.65;2.33;;;;;;;;;;5054336;28;20123;-76
2023/04/30 13:19:09;;;;;;;5.28;2.40;;;;;;;;;;5055158;28;20583;-75
2023/04/30 13:21:35;;;;;;;5.47;2.30;;;;;;;;;;5035620;28;20516;-76
2023/04/30 13:24:01;;;;;;;5.15;2.20;;;;;;;;;;5037094;28;20045;-76
2023/04/30 13:26:28;;;;;;;4.82;2.30;;;;;;;;;;5036435;28;20086;-75
2023/04/30 13:28:54;;;;;;;7.22;2.63;;;;;;;;;;5015937;28;20416;-75
2023/04/30 13:31:21;;;;;;;7.97;2.60;;;;;;;;;;5033348;28;20053;-76
2023/04/30 13:33:47;;;;;;;7.70;2.50;;;;;;;;;;5037495;28;20132;-75
2023/04/30 13:36:13;;;;;;;4.47;2.40;;;;;;;;;;5053676;28;20044;-76
2023/04/30 13:38:40;;;;;;;6.50;2.58;;;;;;;;;;5055140;28;20072;-76
2023/04/30 13:41:06;;;;;;;5.47;2.42;;;;;;;;;;5053537;28;20045;-73
2023/04/30 13:43:32;;;;;;;6.07;2.50;;;;;;;;;;5053515;28;20124;-73
2023/04/30 13:45:58;;;;;;;5.05;2.08;;;;;;;;;;5051343;28;20050;-70
2023/04/30 13:48:25;;;;;;;5.97;2.85;;;;;;;;;;5050701;28;20040;-74
2023/04/30 13:50:54;;;;;;;6.25;2.38;;;;;;;;;;5052067;28;20041;-74
2023/04/30 13:53:20;;;;;;;6.85;2.40;;;;;;;;;;5053150;28;20194;-74
2023/04/30 13:55:46;;;;;;;5.68;2.17;;;;;;;;;;5051798;28;20049;-74
2023/04/30 13:58:12;;;;;;;4.88;2.03;;;;;;;;;;5052383;28;20098;-73
2023/04/30 14:00:38;;;;;;;3.83;1.98;;;;;;;;;;5051306;28;20559;-74
2023/04/30 14:03:05;;;;;;;7.35;2.72;;;;;;;;;;5051725;28;20053;-74
2023/04/30 14:05:31;;;;;;;4.93;2.50;;;;;;;;;;5049629;28;20120;-73
2023/04/30 14:07:57;;;;;;;6.43;2.42;;;;;;;;;;5052221;28;20115;-72
2023/04/30 14:10:23;;;;;;;4.88;1.88;;;;;;;;;;5050697;28;20037;-72
2023/04/30 14:12:50;;;;;;;7.82;2.35;;;;;;;;;;5030627;28;20053;-72
2023/04/30 14:15:16;;;;;;;4.63;2.10;;;;;;;;;;5053679;28;20143;-72
2023/04/30 14:17:42;;;;;;;6.55;2.22;;;;;;;;;;5050327;28;20132;-75
2023/04/30 14:20:08;;;;;;;4.75;2.00;;;;;;;;;;5049630;28;20052;-73
2023/04/30 14:22:37;;;;;;;5.90;2.10;;;;;;;;;;5052456;28;20096;-73
2023/04/30 14:25:04;;;;;;;4.47;2.10;;;;;;;;;;5044495;28;20061;-73
2023/04/30 14:27:30;;;;;;;3.50;1.98;;;;;;;;;;5039351;28;20064;-72
2023/04/30 14:29:56;;;;;;;5.55;2.15;;;;;;;;;;5034332;28;20041;-72
2023/04/30 14:32:25;;;;;;;4.28;1.75;;;;;;;;;;5051267;28;20060;-72
2023/04/30 14:34:52;;;;;;;5.75;2.20;;;;;;;;;;5043954;28;20045;-72
2023/04/30 14:37:18;;;;;;;4.43;1.90;;;;;;;;;;5027281;28;20064;-72